Hauptseite
METAR-TAF:

METAR-TAF

Flughäfen :

Bar Harbor, Maine, Vereinigte Staaten

Breite: 44-27N, Länge: 068-22W, Höhe: 26 m

Beobachtung

Neuester Wetterbericht von vor 40 Minuten, um 11:56 UTC
Wind 5 kt aus Nordwest
Temperatur 19°C
Luftfeuchtigkeit 88%
Luftdruck 1009 hPa
Sichtweite: 16.1 km
Himmel klar

METAR: KBHB 181156Z AUTO 31005KT 10SM CLR 19/17 A2979 RMK AO2 SLP090 60000 70006 T01890172 10194 20172 53012 $

Zeit: 08:36 (12:36 UTC)

Prognose

Neuester Wetterbericht von vor 1 Stunde und 16 Minuten, um 11:20 UTC
Gültige Prognose vom 18 um 12 UTC bis 19 um 12 UTC
Wind 8 kt aus Nord/Nordwest
Sichtweite: 10 km
Durchbrochene Bewölkung in der Höhe von 25000 ft
Ab 19 um 0300 UTC
Wind 7 kt aus Nord
Sichtweite: 10 km
Leicht bewölkt in der Höhe von 25000 ft

TAF: KBHB 181120Z 1812/1912 33008KT P6SM BKN250 FM190300 35007KT P6SM FEW250

Wetterbeobachtungen und Prognosen von mehr als 4000 Flughäfen (METAR und TAF Bericht).

Die verfügbaren Stationen werden durch gelbe und rote Markierungen auf der Karte dargestellt.

Führen Sie die Maus auf sie, um den Namen der Station zu sehen.

Darauf klicken, um die Beobachtung von Wetterbeobachtungen und Prognosen zu sehen.

Um die Karte zu ändern : klicken Sie auf den grünen Tasten mit einem schwarzen Kreuz Zum Vergrößern, auf den grünen Button mit einem Gedankenstrich zu verkleinern, oder auf die grünen Pfeile für benachbarte Karten.


METAR-TAF: